Time;durP1;ratioP1;P1;durP2;ratioP2;P2;SDS_P1;SDS_P2;PMS_P1;PMS_P2;Temp;Humidity;BMP_temperature;BMP_pressure;BME280_temperature;BME280_humidity;BME280_pressure;Samples;Min_cycle;Max_cycle;Signal;HPM_P1;HPM_P2
2022/03/20 00:00:54;;;;;;;3.67;3.30;;;7.00;99.90;;;;;;5032163;28;20864;-70
2022/03/20 00:03:22;;;;;;;9.57;6.37;;;7.00;99.90;;;;;;5035070;28;20459;-70
2022/03/20 00:05:50;;;;;;;4.73;2.83;;;6.90;99.90;;;;;;5025716;28;20462;-70
2022/03/20 00:08:17;;;;;;;8.07;5.13;;;6.90;99.90;;;;;;5037668;28;20492;-71
2022/03/20 00:10:46;;;;;;;9.10;5.20;;;6.90;99.90;;;;;;5034322;28;20525;-70
2022/03/20 00:13:15;;;;;;;6.90;6.20;;;6.90;99.90;;;;;;5039459;28;20485;-69
2022/03/20 00:15:44;;;;;;;12.23;6.30;;;6.80;99.90;;;;;;5038571;28;20479;-71
2022/03/20 00:18:14;;;;;;;6.20;5.27;;;6.80;99.90;;;;;;5033950;28;20434;-69
2022/03/20 00:20:44;;;;;;;8.77;5.97;;;6.80;99.90;;;;;;5033718;28;20967;-70
2022/03/20 00:23:12;;;;;;;10.57;6.17;;;6.80;99.90;;;;;;5032427;28;21071;-69
2022/03/20 00:25:42;;;;;;;11.90;7.07;;;6.80;99.90;;;;;;5031896;28;21037;-70
2022/03/20 00:28:09;;;;;;;6.17;4.87;;;6.80;99.90;;;;;;5032847;28;20426;-69
2022/03/20 00:30:37;;;;;;;10.60;6.63;;;6.70;99.90;;;;;;5036719;28;20457;-69
2022/03/20 00:33:04;;;;;;;8.27;5.40;;;6.70;99.90;;;;;;5038872;28;20484;-69
2022/03/20 00:35:33;;;;;;;13.77;7.27;;;6.70;99.90;;;;;;5036521;28;20466;-69
2022/03/20 00:37:59;;;;;;;6.20;3.73;;;6.70;99.90;;;;;;5035042;28;20460;-69
2022/03/20 00:40:26;;;;;;;7.90;3.70;;;6.60;99.90;;;;;;5036526;28;20537;-70
2022/03/20 00:42:53;;;;;;;12.27;6.80;;;6.60;99.90;;;;;;5036762;28;20437;-69
2022/03/20 00:45:20;;;;;;;12.33;7.83;;;6.60;99.90;;;;;;5034032;28;20471;-69
2022/03/20 00:47:48;;;;;;;7.40;5.77;;;6.60;99.90;;;;;;5029988;28;20457;-69
2022/03/20 00:50:15;;;;;;;13.03;6.63;;;6.60;99.90;;;;;;5033303;28;20892;-69
2022/03/20 00:52:43;;;;;;;9.40;6.20;;;6.50;99.90;;;;;;5035708;28;20463;-69
2022/03/20 00:55:10;;;;;;;12.63;7.03;;;6.50;99.90;;;;;;5036123;28;20481;-69
2022/03/20 00:57:37;;;;;;;12.63;6.80;;;6.50;99.90;;;;;;5029483;28;20550;-69
2022/03/20 01:00:04;;;;;;;19.07;8.37;;;6.50;99.90;;;;;;5028983;28;20570;-68
2022/03/20 01:02:37;;;;;;;10.87;5.60;;;6.50;99.90;;;;;;5035896;28;20457;-68
2022/03/20 01:05:04;;;;;;;11.77;8.07;;;6.50;99.90;;;;;;5034366;28;20442;-70
2022/03/20 01:07:31;;;;;;;9.57;5.90;;;6.40;99.90;;;;;;5037132;28;21048;-70
2022/03/20 01:10:01;;;;;;;14.50;6.50;;;6.40;99.90;;;;;;5022922;28;20438;-70
2022/03/20 01:12:28;;;;;;;7.47;4.67;;;6.30;99.90;;;;;;5019942;28;20551;-70
2022/03/20 01:14:55;;;;;;;13.93;8.03;;;6.30;99.90;;;;;;5031218;28;20454;-70
2022/03/20 01:17:23;;;;;;;19.23;9.73;;;6.20;99.90;;;;;;5026589;28;20438;-70
2022/03/20 01:19:50;;;;;;;13.80;8.23;;;6.20;99.90;;;;;;5026443;28;20447;-70
2022/03/20 01:22:17;;;;;;;9.87;7.63;;;6.20;99.90;;;;;;5023235;28;20539;-71
2022/03/20 01:24:45;;;;;;;8.80;6.03;;;6.20;99.90;;;;;;5026232;28;20498;-70
2022/03/20 01:27:13;;;;;;;15.80;7.60;;;6.20;99.90;;;;;;5025700;28;20459;-70
2022/03/20 01:29:40;;;;;;;15.53;8.67;;;6.20;99.90;;;;;;5018501;28;20443;-68
2022/03/20 01:32:11;;;;;;;13.73;8.20;;;6.10;99.90;;;;;;5026224;28;20474;-69
2022/03/20 01:34:38;;;;;;;10.00;7.37;;;6.10;99.90;;;;;;5023848;28;20522;-69
2022/03/20 01:37:06;;;;;;;11.07;7.50;;;6.10;99.90;;;;;;5025662;28;20438;-69
2022/03/20 01:39:33;;;;;;;12.40;5.27;;;6.00;99.90;;;;;;5025211;28;20434;-69
2022/03/20 01:41:59;;;;;;;7.17;5.30;;;6.10;99.90;;;;;;5023512;28;20430;-69
2022/03/20 01:44:32;;;;;;;18.20;7.73;;;6.00;99.90;;;;;;5018383;28;20513;-69
2022/03/20 01:46:59;;;;;;;13.73;7.67;;;5.90;99.90;;;;;;5027373;28;20463;-69
2022/03/20 01:49:26;;;;;;;9.27;6.10;;;6.00;99.90;;;;;;5019619;28;20438;-70
2022/03/20 01:54:46;;;;;;;16.73;8.83;;;5.90;99.90;;;;;;5001770;28;21096;-69
2022/03/20 01:57:16;;;;;;;13.70;6.43;;;5.90;99.90;;;;;;5021694;28;20495;-70
2022/03/20 01:59:44;;;;;;;4.70;4.00;;;5.80;99.90;;;;;;5021245;28;20462;-68
2022/03/20 02:02:12;;;;;;;11.40;5.37;;;5.70;99.90;;;;;;5021115;28;20487;-69
2022/03/20 02:04:39;;;;;;;9.47;6.40;;;5.70;99.90;;;;;;5017811;28;20486;-69
2022/03/20 02:07:07;;;;;;;18.30;9.20;;;5.70;99.90;;;;;;5025838;28;20451;-70
2022/03/20 02:09:36;;;;;;;11.50;4.97;;;5.70;99.90;;;;;;5018302;28;20464;-70
2022/03/20 02:12:03;;;;;;;8.17;4.53;;;5.80;99.90;;;;;;5019983;28;20582;-70
2022/03/20 02:14:32;;;;;;;13.13;5.47;;;5.70;99.90;;;;;;5021042;28;20479;-69
2022/03/20 02:17:00;;;;;;;10.97;6.27;;;5.80;99.90;;;;;;5023828;28;20472;-69
2022/03/20 02:19:28;;;;;;;6.73;6.03;;;5.80;99.90;;;;;;5022133;28;20445;-69
2022/03/20 02:21:56;;;;;;;10.20;6.17;;;5.70;99.90;;;;;;5023915;28;20551;-70
2022/03/20 02:24:48;;;;;;;9.30;6.53;;;5.70;99.90;;;;;;5027908;28;20458;-69
2022/03/20 02:27:18;;;;;;;9.90;5.30;;;5.60;99.90;;;;;;5019028;28;20460;-69
2022/03/20 02:29:49;;;;;;;9.10;5.50;;;5.60;99.90;;;;;;5026340;28;20459;-69
2022/03/20 02:32:18;;;;;;;7.00;6.13;;;5.60;99.90;;;;;;5026064;28;20479;-69
2022/03/20 02:34:47;;;;;;;8.33;7.40;;;5.60;99.90;;;;;;5019851;28;20483;-69
2022/03/20 02:37:15;;;;;;;9.10;5.43;;;5.50;99.90;;;;;;5018254;28;20487;-69
2022/03/20 02:39:43;;;;;;;13.27;7.47;;;5.60;99.90;;;;;;5026249;28;20451;-69
2022/03/20 02:42:11;;;;;;;9.70;8.60;;;5.60;99.90;;;;;;5026521;28;20473;-69
2022/03/20 02:44:58;;;;;;;9.43;4.30;;;5.60;99.90;;;;;;5025531;28;20501;-69
2022/03/20 02:47:29;;;;;;;12.47;10.20;;;5.60;99.90;;;;;;5028702;28;21051;-69
2022/03/20 02:49:59;;;;;;;6.67;5.63;;;5.70;99.60;;;;;;5029443;28;20445;-70
2022/03/20 02:52:29;;;;;;;7.70;6.93;;;5.70;99.30;;;;;;5026113;28;20528;-68
2022/03/20 02:55:00;;;;;;;3.50;3.20;;;5.70;98.50;;;;;;5026486;28;20469;-69
2022/03/20 02:57:28;;;;;;;6.30;4.97;;;5.70;98.60;;;;;;5026200;28;20462;-70
2022/03/20 02:59:55;;;;;;;8.03;7.17;;;5.70;98.40;;;;;;5029047;28;21267;-69
2022/03/20 03:02:21;;;;;;;6.63;4.77;;;5.80;98.10;;;;;;5028456;28;20482;-69
2022/03/20 03:04:48;;;;;;;3.90;2.50;;;5.80;97.90;;;;;;5024190;28;20476;-69
2022/03/20 03:07:18;;;;;;;3.07;2.37;;;5.80;97.80;;;;;;5031713;28;20467;-69
2022/03/20 03:12:31;;;;;;;12.97;8.33;;;5.80;97.40;;;;;;5018656;28;20515;-69
2022/03/20 03:17:42;;;;;;;4.00;2.70;;;5.80;96.60;;;;;;5026551;28;20494;-69
2022/03/20 03:20:09;;;;;;;5.97;2.63;;;5.90;96.70;;;;;;5026333;28;20596;-69
2022/03/20 03:22:36;;;;;;;5.97;3.30;;;5.90;96.10;;;;;;5031510;28;20438;-69
2022/03/20 03:25:05;;;;;;;5.77;4.20;;;5.80;96.00;;;;;;5027618;28;20491;-70
2022/03/20 03:27:32;;;;;;;5.27;4.87;;;5.90;95.60;;;;;;5021300;28;20449;-69
2022/03/20 03:29:59;;;;;;;10.20;6.80;;;5.90;94.60;;;;;;5022434;28;20509;-70
2022/03/20 03:32:25;;;;;;;10.50;4.70;;;5.90;94.70;;;;;;5029093;28;20473;-70
2022/03/20 03:37:36;;;;;;;6.70;4.90;;;5.90;94.40;;;;;;5020566;28;22166;-69
2022/03/20 03:40:07;;;;;;;10.37;7.93;;;5.90;93.70;;;;;;5036713;28;20434;-69
2022/03/20 03:42:35;;;;;;;13.17;6.67;;;5.80;93.60;;;;;;5018648;28;20459;-70
2022/03/20 03:45:02;;;;;;;13.23;6.07;;;5.70;93.60;;;;;;5026272;28;20514;-68
2022/03/20 03:47:31;;;;;;;10.20;7.27;;;5.80;93.60;;;;;;5028258;28;20558;-69
2022/03/20 03:49:57;;;;;;;12.30;7.50;;;5.80;93.20;;;;;;5026408;28;20433;-67
2022/03/20 03:52:24;;;;;;;11.30;4.50;;;5.70;93.10;;;;;;5021721;28;20942;-67
2022/03/20 03:54:51;;;;;;;5.23;4.00;;;5.70;93.20;;;;;;5022129;28;21432;-68
2022/03/20 03:57:20;;;;;;;8.70;5.67;;;5.80;93.10;;;;;;5024419;28;20465;-67
2022/03/20 03:59:48;;;;;;;8.70;7.00;;;5.80;93.00;;;;;;5017405;28;20481;-67
2022/03/20 04:02:15;;;;;;;8.53;5.73;;;5.80;92.00;;;;;;5022534;28;20458;-67
2022/03/20 04:04:42;;;;;;;7.57;6.50;;;5.70;92.40;;;;;;5023434;28;20508;-66
2022/03/20 04:07:09;;;;;;;10.90;6.90;;;5.70;92.50;;;;;;5019565;28;21220;-67
2022/03/20 04:09:36;;;;;;;4.67;4.00;;;5.80;92.00;;;;;;5023143;28;20442;-67
2022/03/20 04:12:04;;;;;;;7.33;4.03;;;5.70;91.70;;;;;;5030374;28;20450;-67
2022/03/20 04:14:32;;;;;;;6.73;4.10;;;5.70;92.10;;;;;;5031275;28;20486;-68
2022/03/20 04:16:59;;;;;;;7.63;6.30;;;5.70;92.30;;;;;;5029629;28;20468;-67
2022/03/20 04:19:26;;;;;;;11.20;7.47;;;5.80;91.80;;;;;;5031369;28;20513;-67
2022/03/20 04:21:53;;;;;;;6.70;5.47;;;5.70;91.70;;;;;;5031283;28;20523;-67
2022/03/20 04:24:19;;;;;;;8.23;3.57;;;5.70;91.50;;;;;;5034351;28;20455;-68
2022/03/20 04:26:46;;;;;;;10.93;5.93;;;5.70;91.60;;;;;;5028962;28;20456;-67
2022/03/20 04:29:15;;;;;;;3.30;2.43;;;5.80;91.50;;;;;;5024805;28;20511;-68
2022/03/20 04:31:43;;;;;;;9.57;5.90;;;5.70;91.20;;;;;;5029584;28;20513;-67
2022/03/20 04:34:11;;;;;;;5.23;4.73;;;5.60;91.40;;;;;;5026871;28;20484;-67
2022/03/20 04:36:39;;;;;;;11.17;5.00;;;5.60;91.10;;;;;;5021262;28;20556;-67
2022/03/20 04:39:06;;;;;;;7.23;5.50;;;5.50;91.00;;;;;;5023475;28;20943;-67
2022/03/20 04:41:33;;;;;;;6.57;3.50;;;5.50;91.40;;;;;;5026203;28;20462;-68
2022/03/20 04:44:00;;;;;;;10.43;4.50;;;5.60;91.30;;;;;;5030068;28;20797;-69
2022/03/20 04:46:27;;;;;;;9.50;6.63;;;5.70;91.40;;;;;;5025621;28;20481;-69
2022/03/20 04:59:53;;;;;;;6.60;5.27;;;5.50;91.00;;;;;;5033636;28;21177;-68
2022/03/20 05:02:19;;;;;;;8.47;6.00;;;5.50;90.20;;;;;;5034571;28;20528;-67
2022/03/20 05:04:48;;;;;;;4.33;3.93;;;5.40;90.00;;;;;;5034250;28;20532;-69
2022/03/20 05:07:14;;;;;;;5.60;4.57;;;5.40;90.00;;;;;;5032733;28;20443;-68
2022/03/20 05:15:11;;;;;;;5.77;5.20;;;5.40;89.70;;;;;;5032557;28;20514;-67
2022/03/20 05:17:38;;;;;;;6.90;4.93;;;5.40;89.30;;;;;;5030069;28;20459;-68
2022/03/20 05:20:07;;;;;;;6.73;6.20;;;5.50;88.80;;;;;;5035158;28;20434;-67
2022/03/20 05:22:37;;;;;;;6.97;5.47;;;5.40;88.40;;;;;;5034551;28;20466;-66
2022/03/20 05:25:08;;;;;;;4.67;3.00;;;5.40;88.40;;;;;;5030575;28;20498;-68
2022/03/20 05:27:35;;;;;;;6.50;5.20;;;5.40;88.50;;;;;;5023406;28;20475;-67
2022/03/20 05:30:02;;;;;;;8.53;3.33;;;5.40;87.90;;;;;;5035930;28;20485;-67
2022/03/20 05:32:29;;;;;;;16.53;6.50;;;5.30;88.50;;;;;;5028517;28;20467;-68
2022/03/20 05:34:57;;;;;;;3.83;3.53;;;5.30;87.60;;;;;;5032648;28;20458;-68
2022/03/20 05:37:25;;;;;;;2.97;2.33;;;5.30;87.70;;;;;;5033131;28;20853;-67
2022/03/20 05:39:51;;;;;;;8.40;6.47;;;5.20;87.70;;;;;;5030198;28;21047;-68
2022/03/20 05:42:18;;;;;;;6.47;6.07;;;5.20;87.10;;;;;;5035355;28;20451;-68
2022/03/20 05:44:46;;;;;;;9.93;5.13;;;5.10;86.60;;;;;;5034204;28;20979;-69
2022/03/20 05:47:13;;;;;;;5.10;3.47;;;5.10;86.90;;;;;;5036858;28;20459;-68
2022/03/20 05:49:40;;;;;;;5.47;4.87;;;5.00;87.60;;;;;;5034337;28;20523;-67
2022/03/20 05:52:07;;;;;;;11.23;8.80;;;5.00;87.60;;;;;;5035486;28;20479;-67
2022/03/20 05:54:36;;;;;;;10.17;7.53;;;5.00;87.30;;;;;;5027733;28;20491;-66
2022/03/20 05:59:49;;;;;;;3.00;2.80;;;4.90;86.80;;;;;;5032630;28;20430;-68
2022/03/20 06:02:17;;;;;;;9.10;8.27;;;4.90;87.70;;;;;;5034309;28;20455;-67
2022/03/20 06:04:43;;;;;;;7.67;6.20;;;5.00;87.10;;;;;;5033710;28;20462;-68
2022/03/20 06:07:11;;;;;;;15.00;10.30;;;4.90;86.90;;;;;;5035883;28;20482;-68
2022/03/20 06:09:39;;;;;;;2.07;1.87;;;4.90;86.80;;;;;;5032518;28;20438;-67
2022/03/20 06:12:07;;;;;;;6.73;4.77;;;4.90;87.40;;;;;;5033466;28;20471;-67
2022/03/20 06:14:35;;;;;;;8.67;5.23;;;5.00;87.30;;;;;;5027845;28;20454;-67
2022/03/20 06:17:05;;;;;;;1.87;1.67;;;5.00;87.20;;;;;;5033129;28;20457;-67
2022/03/20 06:19:31;;;;;;;5.53;4.90;;;5.10;86.70;;;;;;5033870;28;21067;-68
2022/03/20 06:21:58;;;;;;;6.63;6.03;;;5.00;87.10;;;;;;5030623;28;20474;-67
2022/03/20 06:24:25;;;;;;;7.80;3.60;;;5.10;87.40;;;;;;5031428;28;21098;-68
2022/03/20 06:26:53;;;;;;;9.20;6.87;;;5.20;86.70;;;;;;5028747;28;20438;-67
2022/03/20 06:29:20;;;;;;;4.60;3.93;;;5.20;86.20;;;;;;5029184;28;20567;-67
2022/03/20 06:31:49;;;;;;;3.63;3.20;;;5.30;85.40;;;;;;5032660;28;20441;-67
2022/03/20 06:34:15;;;;;;;3.00;1.90;;;5.40;85.80;;;;;;5027739;28;20449;-67
2022/03/20 06:36:42;;;;;;;10.50;7.37;;;5.40;85.50;;;;;;5021597;28;20946;-68
2022/03/20 06:39:09;;;;;;;13.40;5.83;;;5.50;85.10;;;;;;5021933;28;21102;-67
2022/03/20 06:41:38;;;;;;;15.57;9.30;;;5.60;85.10;;;;;;5018253;28;20460;-67
2022/03/20 06:44:08;;;;;;;8.43;5.67;;;5.70;84.10;;;;;;5019074;28;20510;-68
2022/03/20 06:46:37;;;;;;;7.07;4.40;;;5.90;84.10;;;;;;5021534;28;20466;-69
2022/03/20 06:49:06;;;;;;;8.23;6.50;;;5.80;83.40;;;;;;5017912;28;20440;-67
2022/03/20 06:51:33;;;;;;;5.40;4.90;;;6.00;83.80;;;;;;5021073;28;20445;-67
2022/03/20 06:54:00;;;;;;;8.60;5.93;;;5.90;83.20;;;;;;5025414;28;20463;-67
2022/03/20 06:56:27;;;;;;;8.53;5.80;;;5.90;83.10;;;;;;5012234;28;20463;-67
2022/03/20 06:58:54;;;;;;;11.13;5.90;;;6.00;82.50;;;;;;5021181;28;20454;-69
2022/03/20 07:01:23;;;;;;;11.60;6.20;;;6.10;83.40;;;;;;5017628;28;20442;-68
2022/03/20 07:03:50;;;;;;;3.97;3.47;;;6.20;82.10;;;;;;5022172;28;20437;-68
2022/03/20 07:06:17;;;;;;;6.33;4.40;;;6.10;82.00;;;;;;5023593;28;20558;-67
2022/03/20 07:08:43;;;;;;;9.50;6.43;;;6.00;81.40;;;;;;5022337;28;20460;-67
2022/03/20 07:11:10;;;;;;;6.60;3.90;;;6.00;81.50;;;;;;5021689;28;20523;-68
2022/03/20 07:13:53;;;;;;;4.20;3.37;;;6.10;82.00;;;;;;5025671;28;20482;-68
2022/03/20 07:16:28;;;;;;;6.27;5.70;;;6.10;81.90;;;;;;5029315;28;21796;-68
2022/03/20 07:18:55;;;;;;;7.33;6.50;;;6.20;81.70;;;;;;5027583;28;20444;-69
2022/03/20 07:21:23;;;;;;;7.67;4.43;;;6.40;81.30;;;;;;5026683;28;20537;-67
2022/03/20 07:23:51;;;;;;;11.17;7.10;;;6.30;81.00;;;;;;5028115;28;20572;-68
2022/03/20 07:31:48;;;;;;;5.93;4.33;;;6.00;81.40;;;;;;5022832;28;20421;-68
2022/03/20 07:34:15;;;;;;;8.53;6.90;;;5.80;82.30;;;;;;5017493;28;20498;-69
2022/03/20 07:36:42;;;;;;;7.13;5.53;;;5.80;82.80;;;;;;5023865;28;20461;-68
2022/03/20 07:39:09;;;;;;;5.30;3.77;;;5.90;83.00;;;;;;5026908;28;20467;-68
2022/03/20 07:41:36;;;;;;;5.80;3.40;;;5.80;83.80;;;;;;5019388;28;20571;-69
2022/03/20 07:44:02;;;;;;;12.50;4.13;;;5.90;84.10;;;;;;5021101;28;20426;-68
2022/03/20 07:46:31;;;;;;;10.13;8.53;;;6.10;84.40;;;;;;5022494;28;21401;-68
2022/03/20 07:49:00;;;;;;;10.87;5.50;;;6.20;82.90;;;;;;5018273;28;20500;-69
2022/03/20 07:51:30;;;;;;;11.83;6.20;;;6.10;83.30;;;;;;5017632;28;20467;-69
2022/03/20 07:54:00;;;;;;;13.73;4.87;;;6.10;83.40;;;;;;5004716;28;20475;-67
2022/03/20 07:56:34;;;;;;;3.27;2.40;;;6.10;83.60;;;;;;5010776;28;20563;-67
2022/03/20 07:59:01;;;;;;;4.93;3.37;;;6.20;84.10;;;;;;5018336;28;20470;-68
2022/03/20 08:01:28;;;;;;;6.57;5.77;;;6.40;84.80;;;;;;5020447;28;20535;-69
2022/03/20 08:03:55;;;;;;;5.47;3.63;;;6.80;83.10;;;;;;5011523;28;21185;-69
2022/03/20 08:06:24;;;;;;;3.63;3.30;;;6.70;83.10;;;;;;5037036;28;20538;-68
2022/03/20 08:08:53;;;;;;;5.00;4.50;;;6.60;83.80;;;;;;5035612;28;20467;-69
2022/03/20 08:11:20;;;;;;;10.33;4.27;;;6.50;83.80;;;;;;5037980;28;20463;-67
2022/03/20 08:13:46;;;;;;;5.97;4.00;;;6.50;83.70;;;;;;5032400;28;20480;-68
2022/03/20 08:16:15;;;;;;;8.07;4.27;;;6.70;84.70;;;;;;5038823;28;20487;-67
2022/03/20 08:18:43;;;;;;;10.03;6.40;;;6.80;84.30;;;;;;5035355;28;20471;-67
2022/03/20 08:21:11;;;;;;;12.20;5.37;;;7.00;84.20;;;;;;5037518;28;20567;-69
2022/03/20 08:23:41;;;;;;;19.83;8.27;;;7.20;83.60;;;;;;5038284;28;20464;-68
2022/03/20 08:26:10;;;;;;;7.40;5.93;;;7.60;83.90;;;;;;5040759;28;21030;-69
2022/03/20 08:28:39;;;;;;;6.93;4.60;;;7.80;82.50;;;;;;5033843;28;20464;-68
2022/03/20 08:31:06;;;;;;;9.10;6.10;;;8.20;81.70;;;;;;5038676;28;20438;-68
2022/03/20 08:33:34;;;;;;;10.33;7.90;;;8.40;81.20;;;;;;5035814;28;20462;-69
2022/03/20 08:36:01;;;;;;;9.00;4.17;;;8.80;81.00;;;;;;5034238;28;20472;-68
2022/03/20 08:38:27;;;;;;;6.03;3.13;;;8.60;79.80;;;;;;5037218;28;20476;-67
2022/03/20 08:40:55;;;;;;;7.03;5.30;;;8.30;79.90;;;;;;5036583;28;21007;-68
2022/03/20 08:43:23;;;;;;;7.03;4.90;;;8.30;81.20;;;;;;5035196;28;21666;-68
2022/03/20 08:45:50;;;;;;;7.37;5.23;;;8.30;80.50;;;;;;5032461;28;21011;-69
2022/03/20 08:48:17;;;;;;;7.47;6.13;;;8.10;80.30;;;;;;5028672;28;20470;-67
2022/03/20 08:50:48;;;;;;;3.17;2.97;;;8.10;81.80;;;;;;5036939;28;20450;-69
2022/03/20 08:53:16;;;;;;;10.47;6.67;;;8.00;82.00;;;;;;5036907;28;20853;-68
2022/03/20 08:55:43;;;;;;;5.67;3.30;;;8.00;82.80;;;;;;5036272;28;20479;-69
2022/03/20 08:58:11;;;;;;;16.27;6.97;;;8.40;82.60;;;;;;5041662;28;20465;-68
2022/03/20 09:00:39;;;;;;;12.27;8.40;;;8.80;81.70;;;;;;5038011;28;20564;-68
2022/03/20 09:03:06;;;;;;;7.43;4.87;;;9.00;81.80;;;;;;5034230;28;20452;-69
2022/03/20 09:05:33;;;;;;;12.30;7.57;;;9.20;80.80;;;;;;5034455;28;20512;-69
2022/03/20 09:08:02;;;;;;;6.47;3.87;;;9.10;81.20;;;;;;5043447;28;21228;-68
2022/03/20 09:10:29;;;;;;;9.30;6.00;;;9.40;80.90;;;;;;5038854;28;20487;-69
2022/03/20 09:13:00;;;;;;;11.90;7.80;;;9.40;81.00;;;;;;5033539;28;20462;-68
2022/03/20 09:15:29;;;;;;;8.33;5.57;;;9.90;79.70;;;;;;5034310;28;21203;-68
2022/03/20 09:20:43;;;;;;;10.80;5.77;;;10.10;77.50;;;;;;5034929;28;20837;-68
2022/03/20 09:23:12;;;;;;;11.43;9.27;;;10.40;76.60;;;;;;5037662;28;20447;-69
2022/03/20 09:25:41;;;;;;;13.30;9.40;;;10.20;76.80;;;;;;5031458;28;20486;-69
2022/03/20 09:28:10;;;;;;;8.60;7.27;;;10.10;77.30;;;;;;5020798;28;20451;-68
2022/03/20 09:30:42;;;;;;;13.13;9.93;;;9.80;77.70;;;;;;5026464;28;20463;-69
2022/03/20 09:33:10;;;;;;;7.70;5.30;;;9.80;78.30;;;;;;5025467;28;20521;-68
2022/03/20 09:35:38;;;;;;;8.37;5.73;;;9.80;79.40;;;;;;5022768;28;21389;-68
2022/03/20 09:38:07;;;;;;;17.30;8.87;;;9.90;79.50;;;;;;5028445;28;20460;-69
2022/03/20 09:40:35;;;;;;;9.13;5.97;;;10.20;78.40;;;;;;5027272;28;20462;-69
2022/03/20 09:43:02;;;;;;;10.47;4.60;;;10.40;76.90;;;;;;5027644;28;22354;-68
2022/03/20 09:45:30;;;;;;;19.10;8.13;;;9.90;79.20;;;;;;5020241;28;20546;-68
2022/03/20 09:47:58;;;;;;;9.83;7.23;;;9.80;79.60;;;;;;5028650;28;21071;-69
2022/03/20 09:50:25;;;;;;;10.57;5.37;;;9.90;81.00;;;;;;5029881;28;20557;-68
2022/03/20 09:52:52;;;;;;;8.10;5.47;;;10.20;79.90;;;;;;5025825;28;20463;-67
2022/03/20 09:55:19;;;;;;;15.10;10.60;;;10.20;80.00;;;;;;5027253;28;20458;-68
2022/03/20 09:57:46;;;;;;;4.17;3.13;;;10.60;78.80;;;;;;5021318;28;20459;-69
2022/03/20 10:00:16;;;;;;;10.47;7.30;;;10.80;78.60;;;;;;5022826;28;20834;-69
2022/03/20 10:02:45;;;;;;;7.07;4.43;;;11.10;79.30;;;;;;5029963;28;20459;-69
2022/03/20 10:05:20;;;;;;;12.90;8.27;;;11.60;78.70;;;;;;5029956;28;20479;-69
2022/03/20 10:07:47;;;;;;;10.50;4.67;;;12.20;76.20;;;;;;5018058;28;20459;-68
2022/03/20 10:10:16;;;;;;;13.53;10.87;;;12.50;76.70;;;;;;5022670;28;20495;-67
2022/03/20 10:12:45;;;;;;;10.83;8.20;;;12.70;77.70;;;;;;5025389;28;21004;-69
2022/03/20 10:15:31;;;;;;;11.10;6.00;;;13.10;75.20;;;;;;5012664;28;20576;-68
2022/03/20 10:18:14;;;;;;;10.03;8.30;;;12.80;73.90;;;;;;5011745;28;20455;-67
2022/03/20 10:20:46;;;;;;;13.07;8.17;;;13.30;73.50;;;;;;5013013;28;20542;-67
2022/03/20 10:23:34;;;;;;;11.67;7.30;;;12.90;73.90;;;;;;5017744;28;21065;-67
2022/03/20 10:26:07;;;;;;;21.17;9.47;;;12.40;74.30;;;;;;5021399;28;20825;-67
2022/03/20 10:28:38;;;;;;;6.93;5.17;;;12.30;76.40;;;;;;5013118;28;20556;-67
2022/03/20 10:31:06;;;;;;;10.80;7.20;;;12.30;76.40;;;;;;5019569;28;20538;-68
2022/03/20 10:33:35;;;;;;;12.43;5.40;;;12.50;75.70;;;;;;5025733;28;21337;-67
2022/03/20 10:36:11;;;;;;;17.00;7.67;;;12.70;75.80;;;;;;5020294;28;20486;-67
2022/03/20 10:38:38;;;;;;;13.10;8.97;;;13.20;75.70;;;;;;5021917;28;20460;-68
2022/03/20 10:41:17;;;;;;;19.20;8.90;;;13.30;75.10;;;;;;5021036;28;20910;-69
2022/03/20 10:43:44;;;;;;;12.80;7.70;;;13.40;73.80;;;;;;5023584;28;20545;-68
2022/03/20 10:46:21;;;;;;;16.00;9.90;;;13.20;74.30;;;;;;5028599;28;20497;-67
2022/03/20 10:48:49;;;;;;;16.47;10.17;;;12.90;75.40;;;;;;5027724;28;20470;-67
2022/03/20 10:51:37;;;;;;;19.73;12.10;;;13.20;76.50;;;;;;5031250;28;21006;-67
2022/03/20 10:54:05;;;;;;;17.67;10.50;;;13.30;75.20;;;;;;5040157;28;20947;-69
2022/03/20 10:56:33;;;;;;;17.17;9.00;;;13.60;75.20;;;;;;5038025;28;27511;-69
2022/03/20 10:59:00;;;;;;;24.13;11.57;;;13.40;75.00;;;;;;5036439;28;20991;-69
2022/03/20 11:01:37;;;;;;;17.47;10.17;;;13.30;75.40;;;;;;5037336;28;20464;-69
2022/03/20 11:04:05;;;;;;;14.57;9.43;;;13.20;75.80;;;;;;5039739;28;21248;-68
2022/03/20 11:06:33;;;;;;;22.73;8.23;;;12.90;76.00;;;;;;5035341;28;20806;-69
2022/03/20 11:09:02;;;;;;;10.13;6.73;;;12.70;76.40;;;;;;5045689;28;20443;-68
2022/03/20 11:11:30;;;;;;;18.90;10.70;;;12.70;75.80;;;;;;5039600;28;20494;-68
2022/03/20 11:13:59;;;;;;;18.20;9.17;;;12.70;75.20;;;;;;5038952;28;20477;-68
2022/03/20 11:16:29;;;;;;;11.83;4.10;;;12.60;75.70;;;;;;5031861;28;20487;-69
2022/03/20 11:18:58;;;;;;;15.87;8.90;;;12.70;75.40;;;;;;5036866;28;21126;-70
2022/03/20 11:21:27;;;;;;;10.43;6.53;;;12.70;75.30;;;;;;5035262;28;20467;-68
2022/03/20 11:23:55;;;;;;;18.40;11.30;;;12.90;76.10;;;;;;5024563;28;20482;-68
2022/03/20 11:26:24;;;;;;;19.30;10.97;;;13.10;74.70;;;;;;5033529;28;20483;-68
2022/03/20 11:28:56;;;;;;;7.73;5.43;;;13.20;73.90;;;;;;5043222;28;20865;-68
2022/03/20 11:31:23;;;;;;;9.20;7.10;;;13.30;74.50;;;;;;5035490;28;20561;-68
2022/03/20 11:33:50;;;;;;;31.07;12.90;;;13.40;73.00;;;;;;5033721;28;21037;-67
2022/03/20 11:36:17;;;;;;;16.93;9.77;;;13.30;74.30;;;;;;5035306;28;20480;-68
2022/03/20 11:38:44;;;;;;;19.63;13.23;;;13.70;74.10;;;;;;5034772;28;20459;-68
2022/03/20 11:41:14;;;;;;;9.83;7.30;;;14.10;73.20;;;;;;5036960;28;20520;-67
2022/03/20 11:43:43;;;;;;;5.83;5.23;;;14.10;72.70;;;;;;5039275;28;20494;-68
2022/03/20 11:46:28;;;;;;;19.93;12.47;;;13.80;72.20;;;;;;5035308;28;20471;-68
2022/03/20 11:49:21;;;;;;;16.03;8.13;;;13.80;73.80;;;;;;5035243;28;20459;-67
2022/03/20 11:51:53;;;;;;;22.10;11.40;;;13.60;73.30;;;;;;5037138;28;20867;-68
2022/03/20 11:54:20;;;;;;;18.93;12.07;;;13.70;74.40;;;;;;5032923;28;20515;-68
2022/03/20 11:56:48;;;;;;;20.50;8.70;;;14.00;76.30;;;;;;5027518;28;20459;-67
2022/03/20 11:59:45;;;;;;;17.73;11.40;;;14.10;75.00;;;;;;5031014;28;20562;-68
2022/03/20 12:02:15;;;;;;;22.80;11.87;;;14.60;75.90;;;;;;5035220;28;21249;-68
2022/03/20 12:05:02;;;;;;;17.60;10.67;;;15.10;73.40;;;;;;5026968;28;20486;-68
2022/03/20 12:07:40;;;;;;;15.73;11.57;;;15.10;73.00;;;;;;5038318;28;20460;-67
2022/03/20 12:10:20;;;;;;;17.87;11.77;;;15.10;72.40;;;;;;5023110;28;20467;-68
2022/03/20 12:13:05;;;;;;;20.10;13.63;;;15.10;72.50;;;;;;5034614;28;20487;-67
2022/03/20 12:15:33;;;;;;;18.83;10.83;;;15.00;73.50;;;;;;5020094;28;20491;-67
2022/03/20 12:18:02;;;;;;;23.80;10.40;;;14.70;75.40;;;;;;5027762;28;21184;-68
2022/03/20 12:21:09;;;;;;;24.07;11.67;;;14.90;75.90;;;;;;5030321;28;20565;-68
2022/03/20 12:23:44;;;;;;;14.77;9.50;;;14.80;76.40;;;;;;5029496;28;20460;-67
2022/03/20 12:26:30;;;;;;;21.10;10.97;;;14.70;74.40;;;;;;5026097;28;20513;-68
2022/03/20 12:29:34;;;;;;;18.23;6.30;;;14.70;76.10;;;;;;5028483;28;20537;-67
2022/03/20 12:32:06;;;;;;;22.60;14.67;;;14.90;76.10;;;;;;5033513;28;20974;-68
2022/03/20 12:34:33;;;;;;;19.23;11.60;;;14.70;77.20;;;;;;5031589;28;20905;-68
2022/03/20 12:37:37;;;;;;;22.73;13.17;;;15.00;77.00;;;;;;5019525;28;20840;-68
2022/03/20 12:40:12;;;;;;;27.17;12.60;;;14.90;76.90;;;;;;5030854;28;20948;-67
2022/03/20 12:42:42;;;;;;;20.70;13.37;;;14.90;78.50;;;;;;5035159;28;20540;-68
2022/03/20 12:45:15;;;;;;;20.23;13.07;;;14.90;78.10;;;;;;5032068;28;20564;-68
2022/03/20 12:47:53;;;;;;;22.90;11.10;;;14.90;78.40;;;;;;5028022;28;20456;-68
2022/03/20 12:50:24;;;;;;;18.97;11.17;;;14.70;78.50;;;;;;5030301;28;20512;-68
2022/03/20 12:52:54;;;;;;;20.13;12.30;;;14.40;80.20;;;;;;5028676;28;20546;-69
2022/03/20 12:55:27;;;;;;;22.77;13.47;;;14.40;79.60;;;;;;5030424;28;20916;-68
2022/03/20 12:57:54;;;;;;;20.10;10.80;;;14.60;80.20;;;;;;5031247;28;20503;-67
2022/03/20 13:00:24;;;;;;;19.83;10.30;;;14.80;80.60;;;;;;5031666;28;20455;-68
2022/03/20 13:03:00;;;;;;;28.67;11.70;;;14.60;79.60;;;;;;5033054;28;20456;-69
2022/03/20 13:05:27;;;;;;;16.60;11.03;;;14.20;81.70;;;;;;5024708;28;20686;-68
2022/03/20 13:07:55;;;;;;;18.00;11.60;;;14.20;83.50;;;;;;5031610;28;20529;-69
2022/03/20 13:10:23;;;;;;;18.03;11.77;;;14.00;84.40;;;;;;5027424;28;20539;-68
2022/03/20 13:12:52;;;;;;;12.10;8.90;;;14.00;85.20;;;;;;5033483;28;20460;-67
2022/03/20 13:15:30;;;;;;;25.03;11.93;;;13.80;86.10;;;;;;5031022;28;20593;-69
2022/03/20 13:17:57;;;;;;;11.87;7.30;;;13.80;87.30;;;;;;5031122;28;20541;-68
2022/03/20 13:20:26;;;;;;;24.77;12.40;;;13.80;87.30;;;;;;5030154;28;21031;-68
2022/03/20 13:22:53;;;;;;;19.00;11.07;;;14.00;88.30;;;;;;5039135;28;20443;-68
2022/03/20 13:25:22;;;;;;;17.10;11.13;;;14.10;87.40;;;;;;5036394;28;20472;-68
2022/03/20 13:27:50;;;;;;;23.60;13.37;;;14.30;87.20;;;;;;5031791;28;21089;-68
2022/03/20 13:30:18;;;;;;;15.10;8.40;;;14.70;87.00;;;;;;5037676;28;20959;-69
2022/03/20 13:32:56;;;;;;;10.10;7.17;;;15.00;86.60;;;;;;5038229;28;20964;-67
2022/03/20 13:35:23;;;;;;;21.73;11.40;;;14.90;85.70;;;;;;5027923;28;20498;-67
2022/03/20 13:37:56;;;;;;;12.80;8.43;;;14.80;86.20;;;;;;5027721;28;20474;-68